Loisir ou Compétition : Rejoignez un Club de la Fédération

Résultats

SNT FFS 4 COUPE DE FRANCE FIS SPRINT

LA FECLAZ

KO-QLF Hommes

Jury de Compétition

Délégué Technique :
MAGAND GUY (DA)
D.T. Adjoint :
REMY PATRICK (SA)
Dir. Epreuve :
DESSEUX MARC (SA)

Caractéristiques de la Piste

Piste :
REPLI
Distance :
1.1 km
Point Haut :
 
Point Bas :
 
Montée Tot. :
 
Montée Max. :
 
Homologation :
 

Pénalité Appliquée :
90.0000
Coefficient :
1200

Catégorie :
U17
Style :
L
Clt Dos Clt/Cat Code An Nom Prénom Com Club Temps Ecart Points
Classés
1 302 1/U17 FFS2663675 2003 ESSONNIER IVAN SA CS LA FECLAZ 2:14.92 00.00 90.00
2 301 2/U17 FFS2670987 2003 VAUTHIER MATHURIN MV LA BRESSAUDE 2:15.91 00.99 98.81
3 307 3/U17 FFS2671811 2003 TYRODE JOSSE MJ SC LESFOURGS 2:17.25 02.33 110.72
4 324 4/U17 FFS2661951 2004 SEROT HUGO SA SC BOZEL 2:17.76 02.84 115.26
5 305 5/U17 FFS2682382 2003 BOURGON JULES MJ SC VERRIERES 2:17.86 02.94 116.15
6 310 6/U17 FFS2670598 2003 DORO AXEL SA CS LA FECLAZ 2:17.90 02.98 116.50
7 319 7/U17 FFS2666900 2004 JAN PIERRE MV GERARDMER SN 2:18.06 03.14 117.93
8 304 8/U17 FFS2659939 2004 PORRET EMIL DA US AUTRANNAI 2:18.43 03.51 121.22
9 311 9/U17 FFS2658773 2003 MARSEILLE NATHAN AP GAP-BAYARD 2:18.45 03.53 121.40
10 309 10/U17 FFS2681218 2003 ROUTIN HUGO MB PRAZ LYS-SOM 2:18.74 03.82 123.98
11 308 11/U17 FFS2670579 2003 ALLEMAND NEIL AP AS EDELWEISS 2:18.75 03.83 124.06
12 329 12/U17 FFS2666640 2004 LAISSUS MILHAN SA SC MENUIRES 2:18.82 03.90 124.69
13 306 13/U17 FFS2656732 2003 BLANC MATHIEU SA CS MERIBEL 2:19.48 04.56 130.56
14 337 14/U17 FFS2666711 2004 DONET GAETAN DA SA MEAUDRAIS 2:19.55 04.63 131.18
15 314 15/U17 FFS2676132 2004 ZANELLATO UGO SA CS LA FECLAZ 2:19.92 05.00 134.47
16 335 16/U17 FFS2653739 2003 GALLOIS ROMAN MJ BOIS D'AMONT 2:20.24 05.32 137.32
17 330 17/U17 FFS2675692 2004 LEUENBERGER LEO MV SC XONRUPT 2:20.28 05.36 137.67
18 344 18/U17 FFS2667079 2003 CHENU EMMANUEL SA SC PEISEY VA 2:20.65 05.73 140.96
19 345 19/U17 FFS2664168 2004 VINCENT LENNIE MJ SKI ROUSSES 2:21.32 06.40 146.92
20 312 20/U17 FFS2670999 2003 BERNAUDON MATHIS AP MTGVE V.CLAR 2:21.37 06.45 147.37
21 317 21/U17 FFS2676437 2003 BAVEREL PIERRE MJ ES SAUGETTE 2:21.78 06.86 151.01
22 313 22/U17 FFS2670606 2003 SIMONOT ANTONIN SA CS LA FECLAZ 2:21.95 07.03 152.53
23 303 23/U17 FFS2675689 2003 MALGRAND HUGO MB PRAZ LYS-SOM 2:22.03 07.11 153.24
24 321 24/U17 FFS2674515 2004 LANNE ANTOINE PE SC AZUN 2:22.47 07.55 157.15
25 384 25/U17 FFS2670581 2003 CHEVALIER BOIVERT QUENTIN AP AS EDELWEISS 2:22.50 07.58 157.42
26 334 26/U17 FFS2665846 2004 SAGE MARTIN DA SN CHARTROUS 2:22.57 07.65 158.04
27 325 27/U17 FFS2664151 2004 CAILLOT FELIX DA SA MEAUDRAIS 2:23.01 08.09 161.95
28 331 28/U17 FFS2658787 2004 GAULIER AUBIN DA CS VILLARD 2:23.04 08.12 162.22
29 315 29/U17 FFS2675463 2003 MISSILLIER CONSTANT MB SC GD BORNAN 2:23.52 08.60 166.49
30 322 30/U17 FFS2648791 2004 FORTINA ADAM MB SC CONTAMINE 2:24.19 09.27 172.45
31 380 31/U17 FFS2681664 2004 PERROUD DORIAN MB SCNP ROCHOIS 2:24.30 09.38 173.43
32 326 32/U17 FFS2676777 2004 FRIBOURG QUENTIN AP SAUZE BARCEL 2:24.58 09.66 175.92
33 357 33/U17 FFS2677441 2004 BUET PIERRE LOIC MJ SMBM/MORBIER 2:25.37 10.45 182.94
34 316 34/U17 FFS2661244 2003 VERGNOLLE TITOUAN DA SN CHARTROUS 2:25.80 10.88 186.77
35 323 35/U17 FFS2658355 2004 DOUILLET BAPTISTE DA SN CHARTROUS 2:25.85 10.93 187.21
36 347 36/U17 FFS2670259 2004 BLANCHARD TITOUAN MB CS LA CLUSAZ 2:26.11 11.19 189.53
37 352 37/U17 FFS2658036 2003 BARON BAPTISTE MB CS LA CLUSAZ 2:26.32 11.40 191.39
38 387 38/U17 FFS2676133 2004 PLANET MARTIN SA CS LA FECLAZ 2:26.50 11.58 192.99
39 333 39/U17 FFS2675595 2003 BOUVEROT ZIAN MB SC CONTAMINE 2:26.53 11.61 193.26
40 353 40/U17 FFS2664692 2004 GROS MICHELE MB SC CONTAMINE 2:27.17 12.25 198.95
41 341 41/U17 FFS2686392 2004 WERNER JOCELYN MV LAC BLANC SN 2:27.86 12.94 205.09
42 339 42/U17 FFS2665222 2004 DEUFFIC CHARLY DA US AUTRANNAI 2:27.89 12.97 205.36
43 388 43/U17 FFS2682250 2003 BRETON AURELIEN MB VILLARD/BOEG 2:28.09 13.17 207.14
44 368 44/U17 FFS2686070 2004 PEAQUIN NATHANAEL SA CS LA FECLAZ 2:28.18 13.26 207.94
45 343 45/U17 FFS2654597 2004 DESCAMPS AUBIN SA CS LA FECLAZ 2:28.96 14.04 214.87
46 327 46/U17 FFS2681916 2003 BERROT MARTIN MJ OYE-PALLET 2:29.43 14.51 219.05
47 340 47/U17 FFS2664963 2004 BOURDE MARTIN AU CNAP 2:30.26 15.34 226.44
48 349 48/U17 FFS2686923 2004 JACQUES ALBAN MJ OYE-PALLET 2:30.37 15.45 227.41
49 332 49/U17 FFS2688059 2004 GUYETAND BASTIEN PE MONT ARG PVG 2:30.94 16.02 232.48
50 318 50/U17 FFS2681176 2003 VERDENET GASPARD MJ OYE-PALLET 2:31.05 16.13 233.46
51 348 51/U17 FFS2686203 2004 MIGNOT BAPTISTE MJ SMBM/MORBIER 2:31.09 16.17 233.82
52 362 52/U17 FFS2690981 2004 BERLIOZ ANTHONY SA CS LA FECLAZ 2:31.14 16.22 234.26
53 336 53/U17 FFS2665219 2004 COSTE NIELS DA US AUTRANNAI 2:31.37 16.45 236.31
54 385 54/U17 FFS2670788 2004 BOUCAUD RAPHAEL DA US AUTRANNAI 2:31.46 16.54 237.11
55 328 55/U17 FFS2665260 2004 TAGLIONE ENZO MJ SMBM/MORBIER 2:31.88 16.96 240.84
55 381 55/U17 FFS2687338 2004 RENAUD ALIX MJ DAMPRICHARD 2:31.88 16.96 240.84
57 351 57/U17 FFS2687019 2004 LECOCQ CLEMENT AU CNAP 2:32.33 17.41 244.85
58 364 58/U17 FFS2682515 2004 TOURNIER GABIN MJ ES SAUGETTE 2:33.01 18.09 250.90
59 360 59/U17 FFS2686357 2004 FAUVEL ROMAIN MV LAC BLANC SN 2:33.28 18.36 253.30
60 386 60/U17 FFS2681320 2004 LEBARD JAN MB DRAGONS ANNY 2:33.46 18.54 254.90
61 358 61/U17 FFS2676994 2004 GENEST NOA AU SC MEZENC 2:33.79 18.87 257.83
62 361 62/U17 FFS2670858 2004 SICRE PAULIN AU EM LA TOUR 2:34.06 19.14 260.23
62 365 62/U17 FFS2686207 2004 CHOLVY ARTHUR AU CN ST JULIEN 2:34.06 19.14 260.23
64 354 64/U17 FFS2684607 2004 ADAM NINO MB CS CHAMONIX 2:34.11 19.19 260.68
65 346 65/U17 FFS2676127 2004 JARRIAND ELIO SA CS LA FECLAZ 2:34.16 19.24 261.12
66 363 66/U17 FFS2681037 2003 RENAUD JULES SA CS LA FECLAZ 2:34.28 19.36 262.19
67 355 67/U17 FFS2681663 2004 LEVET GASTON MB SCNP ROCHOIS 2:34.71 19.79 266.02
68 375 68/U17 FFS2676116 2004 JACQUIER JUDICAEL SA CS LA FECLAZ 2:34.93 20.01 267.97
69 378 69/U17 FFS2665905 2004 MAGINI ELOHANN LY CS VALROMEY 2:36.01 21.09 277.58
70 383 70/U17 FFS2688655 2004 MOUCHET ZIAN MJ OYE-PALLET 2:36.12 21.20 278.56
71 342 71/U17 FFS2661562 2003 CHATEAUNEUF OSCAR MJ BOIS D'AMONT 2:36.70 21.78 283.71
72 356 72/U17 FFS2677531 2004 RAULIN TIMOTHE AP ES VALLOUISE 2:36.76 21.84 284.25
73 350 73/U17 FFS2662962 2004 PANISSET SIMON MB SC GD BORNAN 2:36.99 22.07 286.29
74 359 74/U17 FFS2676099 2004 BLANCHET GASPARD SA CS LA FECLAZ 2:37.85 22.93 293.94
75 371 75/U17 FFS2664007 2004 LERAY AWEN AU CNAP 2:38.74 23.82 301.86
76 379 76/U17 FFS2681798 2004 SAVOIE GASTON MJ HT JURA SKI 2:39.15 24.23 305.51
77 367 77/U17 FFS2676774 2004 PETIOT PAUL AP ES VALLOUISE 2:39.29 24.37 306.75
78 382 78/U17 FFS2664257 2004 MOREL VICTOR MJ SKI ROUSSES 2:39.45 24.53 308.17
79 366 79/U17 FFS2665901 2004 JACQUET GAEL LY CS VALROMEY 2:39.75 24.83 310.84
80 370 80/U17 FFS2692384 2004 BARBANCE MARCEAU CE SCM LOZERE 2:39.76 24.84 310.93
81 374 81/U17 FFS2676581 2004 ROUX MATTEO AP MTGVE V.CLAR 2:39.91 24.99 312.27
82 369 82/U17 FFS2678952 2004 FAVRE BONVIN TITOUAN MB SC GD BORNAN 2:40.19 25.27 314.76
83 377 83/U17 FFS2676101 2004 CHEVRIER ANTONIN SA CS LA FECLAZ 2:42.18 27.26 332.45
84 373 84/U17 FFS2670454 2003 LANCHAIS MARC SA CS LA FECLAZ 2:43.46 28.54 343.84
85 376 85/U17 FFS2681002 2004 GONIN LEANDRE MB SC GD BORNAN 2:43.85 28.93 347.31
86 372 86/U17 FFS2677438 2004 GLAVIEUX GUSTAVE MJ SMBM/MORBIER 2:47.21 32.29 377.19
Non partants
320 FFS2665667 2003 SCHULTZ PAUL LY SC LE POIZAT